UBC Young Douglas Fir (YF) Site

Current climate data:

Measured at 13:30:00, 2017-06-21 (Local time)

 Air temperature        =   0.00 C 
 Relative humidity      =   0.00 % 
 Wind speed             =   0.00 m/s
 Wind direction         =   0.00  
 Barometric pressure    =   0.00 kPa 
 Precipitation (last 30 min) =   0.00 mm 
 Precipitation (24h totals ending at  4:00 AM today)  =   0.50 mm 
 Precipitation (24h totals ending at  1:30 PM today)  =   0.00 mm 
 Cumulative Precipitation (2017) =  NaN mm 

Current Picture (Time stamp:UTC)  (Full size image)

Fire index data:

Year  Month  Day  Hour  Tair(C) RH(%) Wind(m/s) W_Dir(deg)  Rain(mm)   ffmc     dmc      dc     bui     isi     fwi     dsr     Rating
2017      5   22   13   24.62   40.63    0.27     66.69      0.00     88.82   21.74   84.37   26.44    3.80    7.28    0.91       2  
2017      5   23   13   23.60   40.35    0.48    213.46      0.00     89.50   25.62   91.02   30.07    4.35    8.86    1.29       3  
2017      5   24   13   14.37   60.76    0.46     53.86      0.00     87.45   27.21   96.01   31.86    3.23    7.04    0.86       2  
2017      5   25   13   19.16   54.92    0.33     28.64      0.00     87.50   29.62  101.87   34.30    3.18    7.27    0.91       2  
2017      5   26   13   22.37   41.73    0.21     85.72      0.00     88.72   33.22  108.30   37.60    3.71    8.80    1.28       3  
2017      5   27   13   24.61   41.02    0.25     55.31      0.00     89.49   37.21  115.13   41.16    4.17   10.25    1.67       3  
2017      5   28   13   26.61   37.68    0.25     89.41      0.00     90.45   41.76  122.32   45.06    4.78   12.08    2.24       3  
2017      5   29   13   25.35   44.01    0.21     64.36      0.00     90.50   45.66  129.29   48.50    4.78   12.59    2.41       3  
2017      5   30   13   15.91   76.82    0.16     63.58      0.00     85.82   46.69  134.56   50.01    2.43    7.23    0.90       3  
2017      5   31   13   13.80   79.46    0.41    110.84      0.00     83.63   47.50  139.45   51.31    1.89    5.80    0.61       3  
2017      6    1   13   15.52   63.17    0.15    206.68      0.00     84.04   49.11  145.64   53.30    1.90    6.00    0.65       3  
2017      6    2   13   16.21   51.92    0.26    162.71      0.00     85.43   51.30  151.97   55.64    2.34    7.50    0.96       3  
2017      6    3   13   17.92   43.92    0.27     70.63      0.00     87.14   54.11  158.59   58.40    2.99    9.55    1.48       3  
2017      6    4   13   18.92   44.75    0.29     53.71      0.00     87.80   57.02  165.40   61.25    3.30   10.67    1.80       3  
2017      6    5   13   20.10   39.52    0.34    111.68      0.00     88.83   60.40  172.43   64.40    3.85   12.47    2.37       3  
2017      6    6   13   23.62   34.80    0.22    107.02      0.00     90.26   64.64  180.08   68.14    4.63   14.87    3.23       3  
2017      6    7   13   22.61   52.33    0.14     96.48      0.00     89.42   67.62  187.56   71.13    4.05   13.73    2.81       4* 
2017      6    8   13   12.79   96.21    0.35    177.23      9.83     23.69   35.20  172.16   46.58    0.00    0.00    0.00       2  
2017      6    9   13   15.11   63.04    0.22     95.30      0.25     45.41   36.77  178.28   48.52    0.09    0.15    0.00       2  
2017      6   10   13   18.13   56.48    0.21     66.75      0.00     65.14   38.98  184.95   51.05    0.55    0.94    0.02       3  
2017      6   11   13   18.08   58.75    0.15     64.49      0.00     75.48   41.06  191.61   53.47    0.81    2.25    0.11       3  
2017      6   12   13   19.09   56.36    0.19      4.61      0.00     81.47   43.38  198.45   56.10    1.39    4.53    0.40       3  
2017      6   13   13   16.84   63.37    0.21    116.83      0.00     83.07   45.11  204.89   58.19    1.69    5.70    0.59       3  
2017      6   14   13   14.04   63.25    0.24    116.34      0.00     83.62   46.57  210.82   60.01    1.83    6.28    0.70       3  
2017      6   15   13   10.35  101.09    1.02    112.09     34.78     50.03   33.25  208.53   47.55    0.20    0.32    0.00       2  
2017      6   16   13   15.53   84.31    0.14     28.67      8.57     23.78   17.58  195.82   28.71    0.00    0.00    0.00       2  
2017      6   17   13   15.91   65.81    0.28    121.92      0.00     45.44   19.11  202.09   30.91    0.09    0.11    0.00       2  
2017      6   18   13   10.91   98.32    0.19    120.90      2.52     28.60   15.46  207.45   26.06    0.00    0.00    0.00       2  
2017      6   19   13   16.38   88.67    0.07     95.70      0.76     34.51   15.98  213.81   26.92    0.01    0.01    0.00       2  
2017      6   20   13   16.59   73.39    0.15     81.22      0.50     50.02   17.22  220.20   28.80    0.17    0.19    0.00       2  

(c) 2017 Biomet Group, University of British Columbia, Canada